sensor_id;sensor_type;location;lat;lon;timestamp;temperature;humidity
47090;DHT22;32840;52.516;13.294;2023-02-18T00:02:14;8.80;99.90
47090;DHT22;32840;52.516;13.294;2023-02-18T00:04:59;8.80;99.90
47090;DHT22;32840;52.516;13.294;2023-02-18T00:07:44;8.90;99.90
47090;DHT22;32840;52.516;13.294;2023-02-18T00:10:28;8.90;99.90
47090;DHT22;32840;52.516;13.294;2023-02-18T00:13:16;8.90;99.90
47090;DHT22;32840;52.516;13.294;2023-02-18T00:16:04;9.00;99.90
47090;DHT22;32840;52.516;13.294;2023-02-18T00:18:55;9.00;99.90
47090;DHT22;32840;52.516;13.294;2023-02-18T00:21:41;9.10;99.90
47090;DHT22;32840;52.516;13.294;2023-02-18T00:24:27;9.10;99.90
47090;DHT22;32840;52.516;13.294;2023-02-18T00:27:11;9.10;99.90
47090;DHT22;32840;52.516;13.294;2023-02-18T00:29:57;9.10;99.90
47090;DHT22;32840;52.516;13.294;2023-02-18T00:32:43;9.10;99.90
47090;DHT22;32840;52.516;13.294;2023-02-18T00:35:28;8.90;99.90
47090;DHT22;32840;52.516;13.294;2023-02-18T00:38:14;8.80;99.90
47090;DHT22;32840;52.516;13.294;2023-02-18T00:41:03;8.80;99.90
47090;DHT22;32840;52.516;13.294;2023-02-18T00:43:48;8.80;99.90
47090;DHT22;32840;52.516;13.294;2023-02-18T00:46:33;8.80;99.90
47090;DHT22;32840;52.516;13.294;2023-02-18T00:49:18;8.70;99.90
47090;DHT22;32840;52.516;13.294;2023-02-18T00:52:04;8.70;99.90
47090;DHT22;32840;52.516;13.294;2023-02-18T00:54:48;8.70;99.90
47090;DHT22;32840;52.516;13.294;2023-02-18T00:57:33;8.80;99.90
47090;DHT22;32840;52.516;13.294;2023-02-18T01:00:18;8.80;99.90
47090;DHT22;32840;52.516;13.294;2023-02-18T01:03:04;8.80;99.90
47090;DHT22;32840;52.516;13.294;2023-02-18T01:05:51;8.70;99.90
47090;DHT22;32840;52.516;13.294;2023-02-18T01:08:37;8.70;99.90
47090;DHT22;32840;52.516;13.294;2023-02-18T01:11:25;8.70;99.90
47090;DHT22;32840;52.516;13.294;2023-02-18T01:14:13;8.80;99.90
47090;DHT22;32840;52.516;13.294;2023-02-18T01:16:57;8.70;99.90
47090;DHT22;32840;52.516;13.294;2023-02-18T01:19:42;8.80;99.90
47090;DHT22;32840;52.516;13.294;2023-02-18T01:22:27;8.60;99.90
47090;DHT22;32840;52.516;13.294;2023-02-18T01:25:12;8.60;99.90
47090;DHT22;32840;52.516;13.294;2023-02-18T01:27:57;8.60;99.90
47090;DHT22;32840;52.516;13.294;2023-02-18T01:30:42;8.60;99.90
47090;DHT22;32840;52.516;13.294;2023-02-18T01:33:27;8.60;99.90
47090;DHT22;32840;52.516;13.294;2023-02-18T01:36:12;8.70;99.90
47090;DHT22;32840;52.516;13.294;2023-02-18T01:38:57;8.70;99.90
47090;DHT22;32840;52.516;13.294;2023-02-18T01:41:42;8.70;99.90
47090;DHT22;32840;52.516;13.294;2023-02-18T01:44:27;8.70;99.90
47090;DHT22;32840;52.516;13.294;2023-02-18T01:47:14;8.70;99.90
47090;DHT22;32840;52.516;13.294;2023-02-18T01:49:59;8.70;99.90
47090;DHT22;32840;52.516;13.294;2023-02-18T01:52:46;8.60;99.90
47090;DHT22;32840;52.516;13.294;2023-02-18T01:55:33;8.70;99.90
47090;DHT22;32840;52.516;13.294;2023-02-18T01:58:23;8.70;99.90
47090;DHT22;32840;52.516;13.294;2023-02-18T02:01:10;8.70;99.90
47090;DHT22;32840;52.516;13.294;2023-02-18T02:03:55;8.60;99.90
47090;DHT22;32840;52.516;13.294;2023-02-18T02:06:40;8.60;99.90
47090;DHT22;32840;52.516;13.294;2023-02-18T02:09:27;8.50;99.90
47090;DHT22;32840;52.516;13.294;2023-02-18T02:15:51;8.60;99.90
47090;DHT22;32840;52.516;13.294;2023-02-18T02:19:25;8.70;99.90
47090;DHT22;32840;52.516;13.294;2023-02-18T02:32:34;8.70;99.90
47090;DHT22;32840;52.516;13.294;2023-02-18T02:38:33;8.60;99.90
47090;DHT22;32840;52.516;13.294;2023-02-18T02:41:37;8.50;99.90
47090;DHT22;32840;52.516;13.294;2023-02-18T02:44:37;8.50;99.90
47090;DHT22;32840;52.516;13.294;2023-02-18T02:47:32;8.60;99.90
47090;DHT22;32840;52.516;13.294;2023-02-18T02:53:47;8.50;99.90
47090;DHT22;32840;52.516;13.294;2023-02-18T02:56:32;8.50;99.90
47090;DHT22;32840;52.516;13.294;2023-02-18T02:59:23;8.50;99.90
47090;DHT22;32840;52.516;13.294;2023-02-18T03:02:57;8.40;99.90
47090;DHT22;32840;52.516;13.294;2023-02-18T03:12:40;8.40;99.90
47090;DHT22;32840;52.516;13.294;2023-02-18T03:15:56;8.40;99.90
47090;DHT22;32840;52.516;13.294;2023-02-18T03:22:12;8.30;99.90
47090;DHT22;32840;52.516;13.294;2023-02-18T03:25:01;8.30;99.90
47090;DHT22;32840;52.516;13.294;2023-02-18T03:27:54;8.20;99.90
47090;DHT22;32840;52.516;13.294;2023-02-18T03:30:47;8.30;99.90
47090;DHT22;32840;52.516;13.294;2023-02-18T03:33:43;8.40;99.90
47090;DHT22;32840;52.516;13.294;2023-02-18T03:36:32;8.40;99.90
47090;DHT22;32840;52.516;13.294;2023-02-18T03:39:19;8.50;99.90
47090;DHT22;32840;52.516;13.294;2023-02-18T03:42:04;8.50;99.90
47090;DHT22;32840;52.516;13.294;2023-02-18T03:44:50;8.50;99.90
47090;DHT22;32840;52.516;13.294;2023-02-18T03:47:37;8.60;99.90
47090;DHT22;32840;52.516;13.294;2023-02-18T03:50:21;8.60;99.90
47090;DHT22;32840;52.516;13.294;2023-02-18T03:53:06;8.60;99.90
47090;DHT22;32840;52.516;13.294;2023-02-18T03:55:52;8.60;99.90
47090;DHT22;32840;52.516;13.294;2023-02-18T03:58:37;8.50;99.90
47090;DHT22;32840;52.516;13.294;2023-02-18T04:01:22;8.50;99.90
47090;DHT22;32840;52.516;13.294;2023-02-18T04:04:07;8.50;99.90
47090;DHT22;32840;52.516;13.294;2023-02-18T04:06:51;8.50;99.90
47090;DHT22;32840;52.516;13.294;2023-02-18T04:09:36;8.50;99.90
47090;DHT22;32840;52.516;13.294;2023-02-18T04:12:21;8.40;99.90
47090;DHT22;32840;52.516;13.294;2023-02-18T04:15:07;8.40;99.90
47090;DHT22;32840;52.516;13.294;2023-02-18T04:17:52;8.40;99.90
47090;DHT22;32840;52.516;13.294;2023-02-18T04:20:38;8.30;99.90
47090;DHT22;32840;52.516;13.294;2023-02-18T04:23:25;8.40;99.90
47090;DHT22;32840;52.516;13.294;2023-02-18T04:26:10;8.40;99.90
47090;DHT22;32840;52.516;13.294;2023-02-18T04:28:54;8.30;99.90
47090;DHT22;32840;52.516;13.294;2023-02-18T04:31:39;8.30;99.90
47090;DHT22;32840;52.516;13.294;2023-02-18T04:34:24;8.30;99.90
47090;DHT22;32840;52.516;13.294;2023-02-18T04:37:09;8.40;99.90
47090;DHT22;32840;52.516;13.294;2023-02-18T04:39:54;8.30;99.90
47090;DHT22;32840;52.516;13.294;2023-02-18T04:42:39;8.30;99.90
47090;DHT22;32840;52.516;13.294;2023-02-18T04:45:26;8.20;99.90
47090;DHT22;32840;52.516;13.294;2023-02-18T04:48:14;8.20;99.90
47090;DHT22;32840;52.516;13.294;2023-02-18T04:50:58;8.30;99.90
47090;DHT22;32840;52.516;13.294;2023-02-18T04:53:43;8.20;99.90
47090;DHT22;32840;52.516;13.294;2023-02-18T04:56:28;8.30;99.90
47090;DHT22;32840;52.516;13.294;2023-02-18T04:59:14;8.20;99.90
47090;DHT22;32840;52.516;13.294;2023-02-18T05:02:02;8.30;99.90
47090;DHT22;32840;52.516;13.294;2023-02-18T05:04:46;8.30;99.90
47090;DHT22;32840;52.516;13.294;2023-02-18T05:07:31;8.20;99.90
47090;DHT22;32840;52.516;13.294;2023-02-18T05:10:18;8.20;99.90
47090;DHT22;32840;52.516;13.294;2023-02-18T05:13:03;8.20;99.90
47090;DHT22;32840;52.516;13.294;2023-02-18T05:15:51;8.30;99.90
47090;DHT22;32840;52.516;13.294;2023-02-18T05:18:35;8.30;99.90
47090;DHT22;32840;52.516;13.294;2023-02-18T05:21:20;8.40;99.90
47090;DHT22;32840;52.516;13.294;2023-02-18T05:24:05;8.40;99.90
47090;DHT22;32840;52.516;13.294;2023-02-18T05:26:50;8.50;99.90
47090;DHT22;32840;52.516;13.294;2023-02-18T05:29:36;8.50;99.90
47090;DHT22;32840;52.516;13.294;2023-02-18T05:32:22;8.60;99.90
47090;DHT22;32840;52.516;13.294;2023-02-18T05:35:08;8.70;99.90
47090;DHT22;32840;52.516;13.294;2023-02-18T05:37:53;8.80;99.90
47090;DHT22;32840;52.516;13.294;2023-02-18T05:40:38;8.80;99.90
47090;DHT22;32840;52.516;13.294;2023-02-18T05:43:23;8.80;99.90
47090;DHT22;32840;52.516;13.294;2023-02-18T05:46:08;8.80;99.90
47090;DHT22;32840;52.516;13.294;2023-02-18T05:48:52;8.90;99.90
47090;DHT22;32840;52.516;13.294;2023-02-18T05:51:37;9.00;99.90
47090;DHT22;32840;52.516;13.294;2023-02-18T05:54:23;9.00;99.90
47090;DHT22;32840;52.516;13.294;2023-02-18T05:57:08;9.10;99.90
47090;DHT22;32840;52.516;13.294;2023-02-18T05:59:53;9.10;99.90
47090;DHT22;32840;52.516;13.294;2023-02-18T06:02:38;9.00;99.90
47090;DHT22;32840;52.516;13.294;2023-02-18T06:05:23;9.00;99.90
47090;DHT22;32840;52.516;13.294;2023-02-18T06:08:09;9.00;99.90
47090;DHT22;32840;52.516;13.294;2023-02-18T06:10:54;9.10;99.90
47090;DHT22;32840;52.516;13.294;2023-02-18T06:13:38;9.10;99.90
47090;DHT22;32840;52.516;13.294;2023-02-18T06:16:24;9.20;99.90
47090;DHT22;32840;52.516;13.294;2023-02-18T06:19:09;9.20;99.90
47090;DHT22;32840;52.516;13.294;2023-02-18T06:21:54;9.20;99.90
47090;DHT22;32840;52.516;13.294;2023-02-18T06:24:39;9.20;99.90
47090;DHT22;32840;52.516;13.294;2023-02-18T06:27:25;9.30;99.90
47090;DHT22;32840;52.516;13.294;2023-02-18T06:30:10;9.20;99.90
47090;DHT22;32840;52.516;13.294;2023-02-18T06:32:55;9.30;99.90
47090;DHT22;32840;52.516;13.294;2023-02-18T06:35:40;9.40;99.90
47090;DHT22;32840;52.516;13.294;2023-02-18T06:38:25;9.40;99.90
47090;DHT22;32840;52.516;13.294;2023-02-18T06:41:11;9.50;99.90
47090;DHT22;32840;52.516;13.294;2023-02-18T06:43:57;9.50;99.90
47090;DHT22;32840;52.516;13.294;2023-02-18T06:46:42;9.40;99.90
47090;DHT22;32840;52.516;13.294;2023-02-18T06:49:27;9.30;99.90
47090;DHT22;32840;52.516;13.294;2023-02-18T06:52:11;9.30;99.90
47090;DHT22;32840;52.516;13.294;2023-02-18T06:54:57;9.40;99.90
47090;DHT22;32840;52.516;13.294;2023-02-18T06:57:41;9.50;99.90
47090;DHT22;32840;52.516;13.294;2023-02-18T07:00:26;9.50;99.90
47090;DHT22;32840;52.516;13.294;2023-02-18T07:03:12;9.60;99.90
47090;DHT22;32840;52.516;13.294;2023-02-18T07:06:00;9.60;99.90
47090;DHT22;32840;52.516;13.294;2023-02-18T07:08:44;9.50;99.90
47090;DHT22;32840;52.516;13.294;2023-02-18T07:11:29;9.50;99.90
47090;DHT22;32840;52.516;13.294;2023-02-18T07:14:14;9.60;99.90
47090;DHT22;32840;52.516;13.294;2023-02-18T07:16:59;9.60;99.90
47090;DHT22;32840;52.516;13.294;2023-02-18T07:19:44;9.60;99.90
47090;DHT22;32840;52.516;13.294;2023-02-18T07:22:29;9.60;99.90
47090;DHT22;32840;52.516;13.294;2023-02-18T07:25:14;9.70;99.90
47090;DHT22;32840;52.516;13.294;2023-02-18T07:27:59;9.70;99.90
47090;DHT22;32840;52.516;13.294;2023-02-18T07:30:44;9.60;99.90
47090;DHT22;32840;52.516;13.294;2023-02-18T07:33:29;9.60;99.90
47090;DHT22;32840;52.516;13.294;2023-02-18T07:36:14;9.60;99.90
47090;DHT22;32840;52.516;13.294;2023-02-18T07:38:59;9.60;99.90
47090;DHT22;32840;52.516;13.294;2023-02-18T07:41:43;9.60;99.90
47090;DHT22;32840;52.516;13.294;2023-02-18T07:44:28;9.60;99.90
47090;DHT22;32840;52.516;13.294;2023-02-18T07:47:16;9.80;99.90
47090;DHT22;32840;52.516;13.294;2023-02-18T07:50:04;9.80;99.90
47090;DHT22;32840;52.516;13.294;2023-02-18T07:52:49;9.80;99.90
47090;DHT22;32840;52.516;13.294;2023-02-18T07:55:35;9.80;99.90
47090;DHT22;32840;52.516;13.294;2023-02-18T07:58:37;9.90;99.90
47090;DHT22;32840;52.516;13.294;2023-02-18T08:01:22;10.00;99.90
47090;DHT22;32840;52.516;13.294;2023-02-18T08:04:07;9.90;99.90
47090;DHT22;32840;52.516;13.294;2023-02-18T08:06:53;9.80;99.90
47090;DHT22;32840;52.516;13.294;2023-02-18T08:09:38;9.90;99.90
47090;DHT22;32840;52.516;13.294;2023-02-18T08:12:23;9.80;99.90
47090;DHT22;32840;52.516;13.294;2023-02-18T08:15:08;9.80;99.90
47090;DHT22;32840;52.516;13.294;2023-02-18T08:17:53;9.80;99.90
47090;DHT22;32840;52.516;13.294;2023-02-18T08:20:38;9.70;99.90
47090;DHT22;32840;52.516;13.294;2023-02-18T08:23:23;9.70;99.90
47090;DHT22;32840;52.516;13.294;2023-02-18T08:26:10;9.70;99.90
47090;DHT22;32840;52.516;13.294;2023-02-18T08:28:56;9.80;99.90
47090;DHT22;32840;52.516;13.294;2023-02-18T08:31:41;9.70;99.90
47090;DHT22;32840;52.516;13.294;2023-02-18T08:34:26;9.70;99.90
47090;DHT22;32840;52.516;13.294;2023-02-18T08:37:10;9.70;99.90
47090;DHT22;32840;52.516;13.294;2023-02-18T08:39:55;9.80;99.90
47090;DHT22;32840;52.516;13.294;2023-02-18T08:42:40;9.70;99.90
47090;DHT22;32840;52.516;13.294;2023-02-18T08:45:25;9.60;99.90
47090;DHT22;32840;52.516;13.294;2023-02-18T08:48:12;9.50;99.90
47090;DHT22;32840;52.516;13.294;2023-02-18T08:50:57;9.50;99.90
47090;DHT22;32840;52.516;13.294;2023-02-18T08:53:42;9.40;99.90
47090;DHT22;32840;52.516;13.294;2023-02-18T08:56:30;9.30;99.90
47090;DHT22;32840;52.516;13.294;2023-02-18T08:59:16;9.20;99.90
47090;DHT22;32840;52.516;13.294;2023-02-18T09:02:01;9.10;99.90
47090;DHT22;32840;52.516;13.294;2023-02-18T09:04:46;9.00;99.90
47090;DHT22;32840;52.516;13.294;2023-02-18T09:07:30;8.90;99.90
47090;DHT22;32840;52.516;13.294;2023-02-18T09:10:15;8.90;99.90
47090;DHT22;32840;52.516;13.294;2023-02-18T09:13:00;8.90;99.90
47090;DHT22;32840;52.516;13.294;2023-02-18T09:15:45;9.00;99.90
47090;DHT22;32840;52.516;13.294;2023-02-18T09:18:31;9.10;99.90
47090;DHT22;32840;52.516;13.294;2023-02-18T09:21:17;9.30;99.90
47090;DHT22;32840;52.516;13.294;2023-02-18T09:24:04;9.30;99.90
47090;DHT22;32840;52.516;13.294;2023-02-18T09:26:49;9.40;99.90
47090;DHT22;32840;52.516;13.294;2023-02-18T09:29:38;9.40;99.90
47090;DHT22;32840;52.516;13.294;2023-02-18T09:32:23;9.40;99.90
47090;DHT22;32840;52.516;13.294;2023-02-18T09:35:07;9.30;99.90
47090;DHT22;32840;52.516;13.294;2023-02-18T09:37:52;9.30;99.90
47090;DHT22;32840;52.516;13.294;2023-02-18T09:40:42;9.20;99.90
47090;DHT22;32840;52.516;13.294;2023-02-18T09:43:38;9.20;99.90
47090;DHT22;32840;52.516;13.294;2023-02-18T09:46:38;9.10;99.90
47090;DHT22;32840;52.516;13.294;2023-02-18T09:49:26;9.00;99.90
47090;DHT22;32840;52.516;13.294;2023-02-18T09:52:33;9.00;99.90
47090;DHT22;32840;52.516;13.294;2023-02-18T09:55:23;9.00;99.90
47090;DHT22;32840;52.516;13.294;2023-02-18T09:58:17;9.10;99.90
47090;DHT22;32840;52.516;13.294;2023-02-18T10:01:24;9.10;99.90
47090;DHT22;32840;52.516;13.294;2023-02-18T10:04:29;9.20;99.90
47090;DHT22;32840;52.516;13.294;2023-02-18T10:07:27;9.10;99.90
47090;DHT22;32840;52.516;13.294;2023-02-18T10:13:19;9.00;99.90
47090;DHT22;32840;52.516;13.294;2023-02-18T10:16:04;9.00;99.90
47090;DHT22;32840;52.516;13.294;2023-02-18T10:19:00;9.10;99.90
47090;DHT22;32840;52.516;13.294;2023-02-18T10:21:48;9.00;99.90
47090;DHT22;32840;52.516;13.294;2023-02-18T10:24:47;8.90;99.90
47090;DHT22;32840;52.516;13.294;2023-02-18T10:27:36;8.90;99.90
47090;DHT22;32840;52.516;13.294;2023-02-18T10:30:34;9.00;99.90
47090;DHT22;32840;52.516;13.294;2023-02-18T10:33:34;9.00;99.90
47090;DHT22;32840;52.516;13.294;2023-02-18T10:39:41;9.10;99.90
47090;DHT22;32840;52.516;13.294;2023-02-18T10:42:44;9.20;99.90
47090;DHT22;32840;52.516;13.294;2023-02-18T10:45:59;9.30;99.90
47090;DHT22;32840;52.516;13.294;2023-02-18T10:51:50;9.30;99.90
47090;DHT22;32840;52.516;13.294;2023-02-18T10:55:01;9.20;99.90
47090;DHT22;32840;52.516;13.294;2023-02-18T10:57:51;9.20;99.90
47090;DHT22;32840;52.516;13.294;2023-02-18T11:00:38;9.20;99.90
47090;DHT22;32840;52.516;13.294;2023-02-18T11:03:25;9.20;99.90
47090;DHT22;32840;52.516;13.294;2023-02-18T11:09:39;9.20;99.90
47090;DHT22;32840;52.516;13.294;2023-02-18T11:12:29;9.30;99.90
47090;DHT22;32840;52.516;13.294;2023-02-18T11:15:21;9.40;99.90
47090;DHT22;32840;52.516;13.294;2023-02-18T11:18:36;9.40;99.90
47090;DHT22;32840;52.516;13.294;2023-02-18T11:21:36;9.40;99.90
47090;DHT22;32840;52.516;13.294;2023-02-18T11:24:21;9.40;99.90
47090;DHT22;32840;52.516;13.294;2023-02-18T11:27:40;9.30;99.90
47090;DHT22;32840;52.516;13.294;2023-02-18T11:30:39;9.30;99.90
47090;DHT22;32840;52.516;13.294;2023-02-18T11:39:25;9.40;99.90
47090;DHT22;32840;52.516;13.294;2023-02-18T11:42:17;9.40;99.90
47090;DHT22;32840;52.516;13.294;2023-02-18T11:45:03;9.40;99.90
47090;DHT22;32840;52.516;13.294;2023-02-18T11:47:58;9.40;99.90
47090;DHT22;32840;52.516;13.294;2023-02-18T11:50:44;9.30;99.90
47090;DHT22;32840;52.516;13.294;2023-02-18T11:53:36;9.40;99.90
47090;DHT22;32840;52.516;13.294;2023-02-18T11:56:21;9.40;99.90
47090;DHT22;32840;52.516;13.294;2023-02-18T11:59:09;9.50;99.90
47090;DHT22;32840;52.516;13.294;2023-02-18T12:11:08;9.80;99.90
47090;DHT22;32840;52.516;13.294;2023-02-18T12:13:58;9.90;99.90
47090;DHT22;32840;52.516;13.294;2023-02-18T12:17:21;10.00;99.90
47090;DHT22;32840;52.516;13.294;2023-02-18T12:23:38;10.00;99.90
47090;DHT22;32840;52.516;13.294;2023-02-18T12:32:58;10.30;99.90
47090;DHT22;32840;52.516;13.294;2023-02-18T12:35:56;10.40;99.90
47090;DHT22;32840;52.516;13.294;2023-02-18T12:38:53;10.50;99.90
47090;DHT22;32840;52.516;13.294;2023-02-18T12:51:10;10.90;99.90
47090;DHT22;32840;52.516;13.294;2023-02-18T12:54:27;11.10;99.90
47090;DHT22;32840;52.516;13.294;2023-02-18T12:57:39;11.10;99.90
47090;DHT22;32840;52.516;13.294;2023-02-18T13:00:39;11.20;99.90
47090;DHT22;32840;52.516;13.294;2023-02-18T13:07:38;11.40;99.90
47090;DHT22;32840;52.516;13.294;2023-02-18T13:13:15;11.60;99.90
47090;DHT22;32840;52.516;13.294;2023-02-18T13:16:12;11.60;99.90
47090;DHT22;32840;52.516;13.294;2023-02-18T13:22:11;11.70;99.90
47090;DHT22;32840;52.516;13.294;2023-02-18T13:24:58;11.80;99.90
47090;DHT22;32840;52.516;13.294;2023-02-18T13:38:05;11.70;99.90
47090;DHT22;32840;52.516;13.294;2023-02-18T13:40:56;11.70;99.90
47090;DHT22;32840;52.516;13.294;2023-02-18T13:43:41;11.70;99.90
47090;DHT22;32840;52.516;13.294;2023-02-18T13:46:27;11.70;99.90
47090;DHT22;32840;52.516;13.294;2023-02-18T13:49:12;11.80;99.90
47090;DHT22;32840;52.516;13.294;2023-02-18T13:51:59;11.70;99.90
47090;DHT22;32840;52.516;13.294;2023-02-18T13:54:45;11.70;99.90
47090;DHT22;32840;52.516;13.294;2023-02-18T13:57:36;11.60;99.90
47090;DHT22;32840;52.516;13.294;2023-02-18T14:00:25;11.70;99.90
47090;DHT22;32840;52.516;13.294;2023-02-18T14:06:34;11.70;99.90
47090;DHT22;32840;52.516;13.294;2023-02-18T14:09:34;11.70;99.90
47090;DHT22;32840;52.516;13.294;2023-02-18T14:12:39;11.70;99.90
47090;DHT22;32840;52.516;13.294;2023-02-18T14:18:30;11.70;99.90
47090;DHT22;32840;52.516;13.294;2023-02-18T14:21:17;11.70;99.90
47090;DHT22;32840;52.516;13.294;2023-02-18T14:24:06;11.70;99.90
47090;DHT22;32840;52.516;13.294;2023-02-18T14:27:08;11.60;99.90
47090;DHT22;32840;52.516;13.294;2023-02-18T14:30:04;11.70;99.90
47090;DHT22;32840;52.516;13.294;2023-02-18T14:32:52;11.80;99.90
47090;DHT22;32840;52.516;13.294;2023-02-18T14:35:52;11.80;99.90
47090;DHT22;32840;52.516;13.294;2023-02-18T14:42:12;12.10;99.90
47090;DHT22;32840;52.516;13.294;2023-02-18T14:51:05;12.10;99.90
47090;DHT22;32840;52.516;13.294;2023-02-18T14:53:53;12.10;99.90
47090;DHT22;32840;52.516;13.294;2023-02-18T14:57:28;12.00;99.90
47090;DHT22;32840;52.516;13.294;2023-02-18T14:59:48;12.00;99.90
47090;DHT22;32840;52.516;13.294;2023-02-18T15:02:40;11.90;99.90
47090;DHT22;32840;52.516;13.294;2023-02-18T15:05:30;11.80;99.90
47090;DHT22;32840;52.516;13.294;2023-02-18T15:08:22;11.80;99.90
47090;DHT22;32840;52.516;13.294;2023-02-18T15:11:10;11.90;99.90
47090;DHT22;32840;52.516;13.294;2023-02-18T15:13:56;11.90;99.90
47090;DHT22;32840;52.516;13.294;2023-02-18T15:16:43;11.90;99.90
47090;DHT22;32840;52.516;13.294;2023-02-18T15:19:36;12.00;99.90
47090;DHT22;32840;52.516;13.294;2023-02-18T15:22:25;12.00;99.90
47090;DHT22;32840;52.516;13.294;2023-02-18T15:25:11;12.10;99.90
47090;DHT22;32840;52.516;13.294;2023-02-18T15:27:58;12.00;99.90
47090;DHT22;32840;52.516;13.294;2023-02-18T15:30:44;12.00;99.90
47090;DHT22;32840;52.516;13.294;2023-02-18T15:33:30;12.10;99.90
47090;DHT22;32840;52.516;13.294;2023-02-18T15:36:15;12.10;99.90
47090;DHT22;32840;52.516;13.294;2023-02-18T15:39:03;12.10;99.90
47090;DHT22;32840;52.516;13.294;2023-02-18T15:41:57;12.00;99.90
47090;DHT22;32840;52.516;13.294;2023-02-18T15:44:49;12.00;99.90
47090;DHT22;32840;52.516;13.294;2023-02-18T15:47:42;12.00;99.90
47090;DHT22;32840;52.516;13.294;2023-02-18T15:50:32;11.90;99.90
47090;DHT22;32840;52.516;13.294;2023-02-18T15:53:18;11.90;99.90
47090;DHT22;32840;52.516;13.294;2023-02-18T15:56:06;11.90;99.90
47090;DHT22;32840;52.516;13.294;2023-02-18T15:59:06;11.90;99.90
47090;DHT22;32840;52.516;13.294;2023-02-18T16:02:48;11.80;99.90
47090;DHT22;32840;52.516;13.294;2023-02-18T16:05:01;11.80;99.90
47090;DHT22;32840;52.516;13.294;2023-02-18T16:07:57;11.80;99.90
47090;DHT22;32840;52.516;13.294;2023-02-18T16:10:47;11.70;99.90
47090;DHT22;32840;52.516;13.294;2023-02-18T16:13:36;11.70;99.90
47090;DHT22;32840;52.516;13.294;2023-02-18T16:16:30;11.60;99.90
47090;DHT22;32840;52.516;13.294;2023-02-18T16:19:23;11.50;99.90
47090;DHT22;32840;52.516;13.294;2023-02-18T16:25:20;11.40;99.90
47090;DHT22;32840;52.516;13.294;2023-02-18T16:28:59;11.20;99.90
47090;DHT22;32840;52.516;13.294;2023-02-18T16:31:20;11.10;99.90
47090;DHT22;32840;52.516;13.294;2023-02-18T16:34:07;11.00;99.90
47090;DHT22;32840;52.516;13.294;2023-02-18T16:36:52;11.00;99.90
47090;DHT22;32840;52.516;13.294;2023-02-18T16:39:55;11.00;99.90
47090;DHT22;32840;52.516;13.294;2023-02-18T16:42:41;10.90;99.90
47090;DHT22;32840;52.516;13.294;2023-02-18T16:45:39;10.90;99.90
47090;DHT22;32840;52.516;13.294;2023-02-18T16:48:42;10.90;99.90
47090;DHT22;32840;52.516;13.294;2023-02-18T16:51:33;10.80;99.90
47090;DHT22;32840;52.516;13.294;2023-02-18T16:54:21;10.80;99.90
47090;DHT22;32840;52.516;13.294;2023-02-18T16:57:06;10.70;99.90
47090;DHT22;32840;52.516;13.294;2023-02-18T16:59:51;10.70;99.90
47090;DHT22;32840;52.516;13.294;2023-02-18T17:02:36;10.50;99.90
47090;DHT22;32840;52.516;13.294;2023-02-18T17:05:30;10.30;99.90
47090;DHT22;32840;52.516;13.294;2023-02-18T17:08:24;10.20;99.90
47090;DHT22;32840;52.516;13.294;2023-02-18T17:11:23;10.00;99.90
47090;DHT22;32840;52.516;13.294;2023-02-18T17:14:12;9.90;99.90
47090;DHT22;32840;52.516;13.294;2023-02-18T17:16:57;9.90;99.90
47090;DHT22;32840;52.516;13.294;2023-02-18T17:19:42;9.80;99.90
47090;DHT22;32840;52.516;13.294;2023-02-18T17:22:27;9.80;99.90
47090;DHT22;32840;52.516;13.294;2023-02-18T17:25:32;9.80;99.90
47090;DHT22;32840;52.516;13.294;2023-02-18T17:28:20;9.70;99.90
47090;DHT22;32840;52.516;13.294;2023-02-18T17:31:05;9.60;99.90
47090;DHT22;32840;52.516;13.294;2023-02-18T17:33:51;9.60;99.90
47090;DHT22;32840;52.516;13.294;2023-02-18T17:36:36;9.60;99.90
47090;DHT22;32840;52.516;13.294;2023-02-18T17:39:23;9.60;99.90
47090;DHT22;32840;52.516;13.294;2023-02-18T17:42:10;9.70;99.90
47090;DHT22;32840;52.516;13.294;2023-02-18T17:44:57;9.70;99.90
47090;DHT22;32840;52.516;13.294;2023-02-18T17:47:43;9.70;99.90
47090;DHT22;32840;52.516;13.294;2023-02-18T17:50:29;9.60;99.90
47090;DHT22;32840;52.516;13.294;2023-02-18T17:53:15;9.50;99.90
47090;DHT22;32840;52.516;13.294;2023-02-18T17:56:00;9.50;99.90
47090;DHT22;32840;52.516;13.294;2023-02-18T17:58:45;9.50;99.90
47090;DHT22;32840;52.516;13.294;2023-02-18T18:01:31;9.50;99.90
47090;DHT22;32840;52.516;13.294;2023-02-18T18:04:18;9.60;99.90
47090;DHT22;32840;52.516;13.294;2023-02-18T18:07:05;9.50;99.90
47090;DHT22;32840;52.516;13.294;2023-02-18T18:09:50;9.40;99.90
47090;DHT22;32840;52.516;13.294;2023-02-18T18:12:35;9.50;99.90
47090;DHT22;32840;52.516;13.294;2023-02-18T18:15:24;9.50;99.90
47090;DHT22;32840;52.516;13.294;2023-02-18T18:18:11;9.50;99.90
47090;DHT22;32840;52.516;13.294;2023-02-18T18:20:59;9.50;99.90
47090;DHT22;32840;52.516;13.294;2023-02-18T18:23:44;9.50;99.90
47090;DHT22;32840;52.516;13.294;2023-02-18T18:26:29;9.50;99.90
47090;DHT22;32840;52.516;13.294;2023-02-18T18:29:14;9.50;99.90
47090;DHT22;32840;52.516;13.294;2023-02-18T18:31:59;9.40;99.90
47090;DHT22;32840;52.516;13.294;2023-02-18T18:34:44;9.30;99.90
47090;DHT22;32840;52.516;13.294;2023-02-18T18:37:30;9.30;99.90
47090;DHT22;32840;52.516;13.294;2023-02-18T18:40:16;9.30;99.90
47090;DHT22;32840;52.516;13.294;2023-02-18T18:43:01;9.30;99.90
47090;DHT22;32840;52.516;13.294;2023-02-18T18:45:46;9.30;99.90
47090;DHT22;32840;52.516;13.294;2023-02-18T18:48:32;9.30;99.90
47090;DHT22;32840;52.516;13.294;2023-02-18T18:51:20;9.20;99.90
47090;DHT22;32840;52.516;13.294;2023-02-18T18:54:06;9.20;99.90
47090;DHT22;32840;52.516;13.294;2023-02-18T18:56:50;9.10;99.90
47090;DHT22;32840;52.516;13.294;2023-02-18T18:59:36;9.10;99.90
47090;DHT22;32840;52.516;13.294;2023-02-18T19:02:21;9.10;99.90
47090;DHT22;32840;52.516;13.294;2023-02-18T19:05:29;9.10;99.90
47090;DHT22;32840;52.516;13.294;2023-02-18T19:08:14;9.10;99.90
47090;DHT22;32840;52.516;13.294;2023-02-18T19:11:04;9.10;99.90
47090;DHT22;32840;52.516;13.294;2023-02-18T19:13:49;9.10;99.90
47090;DHT22;32840;52.516;13.294;2023-02-18T19:16:35;9.20;99.90
47090;DHT22;32840;52.516;13.294;2023-02-18T19:19:22;9.10;99.90
47090;DHT22;32840;52.516;13.294;2023-02-18T19:22:09;9.10;99.90
47090;DHT22;32840;52.516;13.294;2023-02-18T19:24:57;9.00;99.90
47090;DHT22;32840;52.516;13.294;2023-02-18T19:27:45;9.00;99.90
47090;DHT22;32840;52.516;13.294;2023-02-18T19:30:33;9.00;99.90
47090;DHT22;32840;52.516;13.294;2023-02-18T19:33:18;8.90;99.90
47090;DHT22;32840;52.516;13.294;2023-02-18T19:36:08;8.90;99.90
47090;DHT22;32840;52.516;13.294;2023-02-18T19:38:53;9.00;99.90
47090;DHT22;32840;52.516;13.294;2023-02-18T19:41:38;9.00;99.90